sensor_id;sensor_type;location;lat;lon;timestamp;temperature;humidity
18160;DHT22;9205;52.032;4.314;2023-05-20T00:01:01;13.70;99.90
18160;DHT22;9205;52.032;4.314;2023-05-20T00:03:28;13.60;99.90
18160;DHT22;9205;52.032;4.314;2023-05-20T00:05:55;13.60;99.90
18160;DHT22;9205;52.032;4.314;2023-05-20T00:08:22;13.60;99.90
18160;DHT22;9205;52.032;4.314;2023-05-20T00:10:51;13.50;99.90
18160;DHT22;9205;52.032;4.314;2023-05-20T00:13:18;13.50;99.90
18160;DHT22;9205;52.032;4.314;2023-05-20T00:15:45;13.60;99.90
18160;DHT22;9205;52.032;4.314;2023-05-20T00:18:12;13.50;99.90
18160;DHT22;9205;52.032;4.314;2023-05-20T00:20:40;13.50;99.90
18160;DHT22;9205;52.032;4.314;2023-05-20T00:23:07;13.50;99.90
18160;DHT22;9205;52.032;4.314;2023-05-20T00:25:34;13.50;99.90
18160;DHT22;9205;52.032;4.314;2023-05-20T00:28:03;13.50;67.20
18160;DHT22;9205;52.032;4.314;2023-05-20T00:30:31;13.50;63.10
18160;DHT22;9205;52.032;4.314;2023-05-20T00:32:58;13.50;32.50
18160;DHT22;9205;52.032;4.314;2023-05-20T00:35:26;13.40;13.40
18160;DHT22;9205;52.032;4.314;2023-05-20T00:37:53;13.40;4.30
18160;DHT22;9205;52.032;4.314;2023-05-20T00:40:20;13.40;1.00
18160;DHT22;9205;52.032;4.314;2023-05-20T00:42:49;13.40;9.80
18160;DHT22;9205;52.032;4.314;2023-05-20T00:45:18;13.40;1.00
18160;DHT22;9205;52.032;4.314;2023-05-20T00:47:45;13.40;1.00
18160;DHT22;9205;52.032;4.314;2023-05-20T00:50:12;13.30;1.00
18160;DHT22;9205;52.032;4.314;2023-05-20T00:52:40;13.30;2.20
18160;DHT22;9205;52.032;4.314;2023-05-20T00:55:10;13.30;70.40
18160;DHT22;9205;52.032;4.314;2023-05-20T00:57:37;13.30;99.90
18160;DHT22;9205;52.032;4.314;2023-05-20T01:00:06;13.30;92.90
18160;DHT22;9205;52.032;4.314;2023-05-20T01:02:37;13.20;99.90
18160;DHT22;9205;52.032;4.314;2023-05-20T01:05:05;13.20;99.90
18160;DHT22;9205;52.032;4.314;2023-05-20T01:07:33;13.20;99.90
18160;DHT22;9205;52.032;4.314;2023-05-20T01:10:01;13.20;99.90
18160;DHT22;9205;52.032;4.314;2023-05-20T01:12:33;13.20;99.90
18160;DHT22;9205;52.032;4.314;2023-05-20T01:15:06;13.20;99.90
18160;DHT22;9205;52.032;4.314;2023-05-20T01:17:39;13.10;99.90
18160;DHT22;9205;52.032;4.314;2023-05-20T01:20:12;13.20;99.90
18160;DHT22;9205;52.032;4.314;2023-05-20T01:22:48;13.20;99.90
18160;DHT22;9205;52.032;4.314;2023-05-20T01:25:15;13.10;99.90
18160;DHT22;9205;52.032;4.314;2023-05-20T01:27:45;13.10;99.90
18160;DHT22;9205;52.032;4.314;2023-05-20T01:30:13;13.10;99.90
18160;DHT22;9205;52.032;4.314;2023-05-20T01:32:43;13.10;99.90
18160;DHT22;9205;52.032;4.314;2023-05-20T01:35:15;13.10;99.90
18160;DHT22;9205;52.032;4.314;2023-05-20T01:37:44;13.10;1.00
18160;DHT22;9205;52.032;4.314;2023-05-20T01:40:14;13.10;1.00
18160;DHT22;9205;52.032;4.314;2023-05-20T01:42:43;13.00;1.00
18160;DHT22;9205;52.032;4.314;2023-05-20T01:45:11;13.00;1.00
18160;DHT22;9205;52.032;4.314;2023-05-20T01:47:38;13.00;1.00
18160;DHT22;9205;52.032;4.314;2023-05-20T01:50:06;12.90;1.00
18160;DHT22;9205;52.032;4.314;2023-05-20T01:52:34;12.90;1.00
18160;DHT22;9205;52.032;4.314;2023-05-20T01:55:02;13.00;1.00
18160;DHT22;9205;52.032;4.314;2023-05-20T01:57:30;12.90;1.00
18160;DHT22;9205;52.032;4.314;2023-05-20T01:59:58;12.90;1.00
18160;DHT22;9205;52.032;4.314;2023-05-20T02:02:25;12.80;1.00
18160;DHT22;9205;52.032;4.314;2023-05-20T02:04:53;12.80;1.00
18160;DHT22;9205;52.032;4.314;2023-05-20T02:07:20;12.90;1.00
18160;DHT22;9205;52.032;4.314;2023-05-20T02:09:47;12.90;1.00
18160;DHT22;9205;52.032;4.314;2023-05-20T02:12:15;12.90;1.00
18160;DHT22;9205;52.032;4.314;2023-05-20T02:14:44;12.90;1.00
18160;DHT22;9205;52.032;4.314;2023-05-20T02:17:16;12.90;1.00
18160;DHT22;9205;52.032;4.314;2023-05-20T02:19:44;12.90;1.00
18160;DHT22;9205;52.032;4.314;2023-05-20T02:22:11;12.80;1.00
18160;DHT22;9205;52.032;4.314;2023-05-20T02:24:39;12.90;1.00
18160;DHT22;9205;52.032;4.314;2023-05-20T02:27:08;12.80;1.00
18160;DHT22;9205;52.032;4.314;2023-05-20T02:29:36;12.80;1.00
18160;DHT22;9205;52.032;4.314;2023-05-20T02:32:05;12.90;1.00
18160;DHT22;9205;52.032;4.314;2023-05-20T02:34:33;12.90;1.00
18160;DHT22;9205;52.032;4.314;2023-05-20T02:37:00;12.90;1.00
18160;DHT22;9205;52.032;4.314;2023-05-20T02:39:28;12.80;1.00
18160;DHT22;9205;52.032;4.314;2023-05-20T02:41:55;12.90;1.00
18160;DHT22;9205;52.032;4.314;2023-05-20T02:44:22;12.90;1.00
18160;DHT22;9205;52.032;4.314;2023-05-20T02:46:50;12.80;1.00
18160;DHT22;9205;52.032;4.314;2023-05-20T02:49:18;12.80;1.00
18160;DHT22;9205;52.032;4.314;2023-05-20T02:51:45;12.80;1.00
18160;DHT22;9205;52.032;4.314;2023-05-20T02:54:14;12.80;24.10
18160;DHT22;9205;52.032;4.314;2023-05-20T02:56:41;12.80;34.70
18160;DHT22;9205;52.032;4.314;2023-05-20T02:59:08;12.80;55.80
18160;DHT22;9205;52.032;4.314;2023-05-20T03:01:35;12.70;57.20
18160;DHT22;9205;52.032;4.314;2023-05-20T03:04:02;12.80;99.90
18160;DHT22;9205;52.032;4.314;2023-05-20T03:06:31;12.80;99.90
18160;DHT22;9205;52.032;4.314;2023-05-20T03:08:58;12.80;99.90
18160;DHT22;9205;52.032;4.314;2023-05-20T03:11:26;12.80;99.90
18160;DHT22;9205;52.032;4.314;2023-05-20T03:13:53;12.80;99.90
18160;DHT22;9205;52.032;4.314;2023-05-20T03:16:21;12.80;99.90
18160;DHT22;9205;52.032;4.314;2023-05-20T03:18:49;12.80;99.90
18160;DHT22;9205;52.032;4.314;2023-05-20T03:21:16;12.80;99.90
18160;DHT22;9205;52.032;4.314;2023-05-20T03:23:45;12.80;99.90
18160;DHT22;9205;52.032;4.314;2023-05-20T03:26:13;12.90;99.90
18160;DHT22;9205;52.032;4.314;2023-05-20T03:28:40;12.80;99.90
18160;DHT22;9205;52.032;4.314;2023-05-20T03:31:08;12.80;99.90
18160;DHT22;9205;52.032;4.314;2023-05-20T03:33:35;12.90;99.90
18160;DHT22;9205;52.032;4.314;2023-05-20T03:36:03;12.90;99.90
18160;DHT22;9205;52.032;4.314;2023-05-20T03:38:31;12.90;99.90
18160;DHT22;9205;52.032;4.314;2023-05-20T03:41:00;12.90;99.90
18160;DHT22;9205;52.032;4.314;2023-05-20T03:43:27;12.90;99.90
18160;DHT22;9205;52.032;4.314;2023-05-20T03:45:55;13.00;99.90
18160;DHT22;9205;52.032;4.314;2023-05-20T03:48:22;13.00;99.90
18160;DHT22;9205;52.032;4.314;2023-05-20T03:50:50;13.00;99.90
18160;DHT22;9205;52.032;4.314;2023-05-20T03:53:17;13.00;99.90
18160;DHT22;9205;52.032;4.314;2023-05-20T03:55:45;13.00;99.90
18160;DHT22;9205;52.032;4.314;2023-05-20T03:58:14;12.90;99.90
18160;DHT22;9205;52.032;4.314;2023-05-20T04:00:42;13.00;99.90
18160;DHT22;9205;52.032;4.314;2023-05-20T04:03:09;12.90;99.90
18160;DHT22;9205;52.032;4.314;2023-05-20T04:05:37;12.90;99.90
18160;DHT22;9205;52.032;4.314;2023-05-20T04:08:12;12.90;99.90
18160;DHT22;9205;52.032;4.314;2023-05-20T04:10:40;12.90;99.90
18160;DHT22;9205;52.032;4.314;2023-05-20T04:13:10;12.90;99.90
18160;DHT22;9205;52.032;4.314;2023-05-20T04:15:39;12.90;99.90
18160;DHT22;9205;52.032;4.314;2023-05-20T04:18:06;12.90;99.90
18160;DHT22;9205;52.032;4.314;2023-05-20T04:20:34;12.80;99.90
18160;DHT22;9205;52.032;4.314;2023-05-20T04:23:02;12.90;99.90
18160;DHT22;9205;52.032;4.314;2023-05-20T04:25:29;12.80;99.90
18160;DHT22;9205;52.032;4.314;2023-05-20T04:27:58;12.80;99.90
18160;DHT22;9205;52.032;4.314;2023-05-20T04:30:25;12.80;1.00
18160;DHT22;9205;52.032;4.314;2023-05-20T04:32:54;12.90;1.00
18160;DHT22;9205;52.032;4.314;2023-05-20T04:35:22;12.80;1.00
18160;DHT22;9205;52.032;4.314;2023-05-20T04:37:51;12.80;1.00
18160;DHT22;9205;52.032;4.314;2023-05-20T04:40:20;12.80;1.00
18160;DHT22;9205;52.032;4.314;2023-05-20T04:42:47;12.80;1.00
18160;DHT22;9205;52.032;4.314;2023-05-20T04:45:15;12.80;1.00
18160;DHT22;9205;52.032;4.314;2023-05-20T04:47:43;12.90;1.00
18160;DHT22;9205;52.032;4.314;2023-05-20T04:50:12;12.90;1.00
18160;DHT22;9205;52.032;4.314;2023-05-20T04:52:42;12.90;1.00
18160;DHT22;9205;52.032;4.314;2023-05-20T04:55:10;12.90;1.00
18160;DHT22;9205;52.032;4.314;2023-05-20T04:57:40;12.90;1.00
18160;DHT22;9205;52.032;4.314;2023-05-20T05:00:08;12.80;1.00
18160;DHT22;9205;52.032;4.314;2023-05-20T05:02:37;12.90;1.00
18160;DHT22;9205;52.032;4.314;2023-05-20T05:05:05;13.00;1.00
18160;DHT22;9205;52.032;4.314;2023-05-20T05:07:34;12.90;1.00
18160;DHT22;9205;52.032;4.314;2023-05-20T05:10:02;13.00;1.00
18160;DHT22;9205;52.032;4.314;2023-05-20T05:12:31;13.00;1.00
18160;DHT22;9205;52.032;4.314;2023-05-20T05:14:58;13.00;1.00
18160;DHT22;9205;52.032;4.314;2023-05-20T05:17:27;13.00;1.00
18160;DHT22;9205;52.032;4.314;2023-05-20T05:19:55;13.20;1.00
18160;DHT22;9205;52.032;4.314;2023-05-20T05:22:22;13.20;1.00
18160;DHT22;9205;52.032;4.314;2023-05-20T05:24:51;13.20;1.00
18160;DHT22;9205;52.032;4.314;2023-05-20T05:27:20;13.30;1.00
18160;DHT22;9205;52.032;4.314;2023-05-20T05:29:48;13.30;1.00
18160;DHT22;9205;52.032;4.314;2023-05-20T05:32:16;13.30;1.00
18160;DHT22;9205;52.032;4.314;2023-05-20T05:34:43;13.30;1.00
18160;DHT22;9205;52.032;4.314;2023-05-20T05:37:10;13.40;1.00
18160;DHT22;9205;52.032;4.314;2023-05-20T05:39:38;13.40;1.00
18160;DHT22;9205;52.032;4.314;2023-05-20T05:42:06;13.40;1.00
18160;DHT22;9205;52.032;4.314;2023-05-20T05:44:34;13.40;1.00
18160;DHT22;9205;52.032;4.314;2023-05-20T05:47:04;13.40;1.00
18160;DHT22;9205;52.032;4.314;2023-05-20T05:49:31;13.50;1.00
18160;DHT22;9205;52.032;4.314;2023-05-20T05:51:59;13.40;1.00
18160;DHT22;9205;52.032;4.314;2023-05-20T05:54:26;13.40;1.00
18160;DHT22;9205;52.032;4.314;2023-05-20T05:56:54;13.40;1.00
18160;DHT22;9205;52.032;4.314;2023-05-20T05:59:24;13.40;1.00
18160;DHT22;9205;52.032;4.314;2023-05-20T06:01:52;13.50;1.00
18160;DHT22;9205;52.032;4.314;2023-05-20T06:04:19;13.60;1.00
18160;DHT22;9205;52.032;4.314;2023-05-20T06:06:47;13.60;1.00
18160;DHT22;9205;52.032;4.314;2023-05-20T06:09:15;13.60;1.00
18160;DHT22;9205;52.032;4.314;2023-05-20T06:11:42;13.60;1.00
18160;DHT22;9205;52.032;4.314;2023-05-20T06:14:09;13.60;1.00
18160;DHT22;9205;52.032;4.314;2023-05-20T06:16:38;13.60;1.00
18160;DHT22;9205;52.032;4.314;2023-05-20T06:19:06;13.60;1.00
18160;DHT22;9205;52.032;4.314;2023-05-20T06:21:34;13.70;1.00
18160;DHT22;9205;52.032;4.314;2023-05-20T06:24:01;13.70;1.00
18160;DHT22;9205;52.032;4.314;2023-05-20T06:26:29;13.80;1.00
18160;DHT22;9205;52.032;4.314;2023-05-20T06:28:57;13.80;1.00
18160;DHT22;9205;52.032;4.314;2023-05-20T06:31:25;13.80;1.00
18160;DHT22;9205;52.032;4.314;2023-05-20T06:33:54;13.90;1.00
18160;DHT22;9205;52.032;4.314;2023-05-20T06:36:21;13.80;1.00
18160;DHT22;9205;52.032;4.314;2023-05-20T06:38:48;13.80;1.00
18160;DHT22;9205;52.032;4.314;2023-05-20T06:41:16;13.80;1.00
18160;DHT22;9205;52.032;4.314;2023-05-20T06:43:43;13.90;1.00
18160;DHT22;9205;52.032;4.314;2023-05-20T06:46:44;13.90;1.00
18160;DHT22;9205;52.032;4.314;2023-05-20T06:49:15;14.00;1.00
18160;DHT22;9205;52.032;4.314;2023-05-20T06:51:42;14.10;1.00
18160;DHT22;9205;52.032;4.314;2023-05-20T06:54:10;14.10;1.00
18160;DHT22;9205;52.032;4.314;2023-05-20T06:56:37;14.20;1.00
18160;DHT22;9205;52.032;4.314;2023-05-20T06:59:04;14.20;1.00
18160;DHT22;9205;52.032;4.314;2023-05-20T07:01:34;14.20;1.00
18160;DHT22;9205;52.032;4.314;2023-05-20T07:04:02;14.30;1.00
18160;DHT22;9205;52.032;4.314;2023-05-20T07:06:31;14.30;1.00
18160;DHT22;9205;52.032;4.314;2023-05-20T07:08:58;14.30;1.00
18160;DHT22;9205;52.032;4.314;2023-05-20T07:11:26;14.40;1.00
18160;DHT22;9205;52.032;4.314;2023-05-20T07:13:53;14.50;1.00
18160;DHT22;9205;52.032;4.314;2023-05-20T07:16:23;14.50;1.00
18160;DHT22;9205;52.032;4.314;2023-05-20T07:18:53;14.50;1.00
18160;DHT22;9205;52.032;4.314;2023-05-20T07:21:20;14.60;1.00
18160;DHT22;9205;52.032;4.314;2023-05-20T07:24:09;14.70;1.00
18160;DHT22;9205;52.032;4.314;2023-05-20T07:26:36;14.70;1.00
18160;DHT22;9205;52.032;4.314;2023-05-20T07:29:04;14.70;1.00
18160;DHT22;9205;52.032;4.314;2023-05-20T07:31:33;14.90;1.00
18160;DHT22;9205;52.032;4.314;2023-05-20T07:34:02;14.90;1.00
18160;DHT22;9205;52.032;4.314;2023-05-20T07:36:29;15.00;1.00
18160;DHT22;9205;52.032;4.314;2023-05-20T07:39:00;15.00;1.00
18160;DHT22;9205;52.032;4.314;2023-05-20T07:41:29;15.00;1.00
18160;DHT22;9205;52.032;4.314;2023-05-20T07:43:57;15.10;1.00
18160;DHT22;9205;52.032;4.314;2023-05-20T07:46:24;15.30;1.00
18160;DHT22;9205;52.032;4.314;2023-05-20T07:48:51;15.30;1.00
18160;DHT22;9205;52.032;4.314;2023-05-20T07:51:19;15.40;1.00
18160;DHT22;9205;52.032;4.314;2023-05-20T07:53:46;15.40;99.90
18160;DHT22;9205;52.032;4.314;2023-05-20T07:56:13;15.60;99.90
18160;DHT22;9205;52.032;4.314;2023-05-20T07:58:42;15.60;99.90
18160;DHT22;9205;52.032;4.314;2023-05-20T08:01:09;15.70;99.90
18160;DHT22;9205;52.032;4.314;2023-05-20T08:03:37;15.70;99.90
18160;DHT22;9205;52.032;4.314;2023-05-20T08:06:09;15.70;1.00
18160;DHT22;9205;52.032;4.314;2023-05-20T08:08:36;15.80;1.00
18160;DHT22;9205;52.032;4.314;2023-05-20T08:11:09;15.80;1.00
18160;DHT22;9205;52.032;4.314;2023-05-20T08:13:38;16.00;1.00
18160;DHT22;9205;52.032;4.314;2023-05-20T08:16:07;16.00;1.00
18160;DHT22;9205;52.032;4.314;2023-05-20T08:18:35;16.10;1.00
18160;DHT22;9205;52.032;4.314;2023-05-20T08:21:03;16.20;1.00
18160;DHT22;9205;52.032;4.314;2023-05-20T08:23:32;16.20;1.00
18160;DHT22;9205;52.032;4.314;2023-05-20T08:26:00;16.40;99.90
18160;DHT22;9205;52.032;4.314;2023-05-20T08:28:30;16.40;99.90
18160;DHT22;9205;52.032;4.314;2023-05-20T08:31:00;16.60;99.90
18160;DHT22;9205;52.032;4.314;2023-05-20T08:33:31;16.50;1.00
18160;DHT22;9205;52.032;4.314;2023-05-20T08:35:58;16.50;1.00
18160;DHT22;9205;52.032;4.314;2023-05-20T08:38:26;16.60;1.00
18160;DHT22;9205;52.032;4.314;2023-05-20T08:40:54;16.70;1.00
18160;DHT22;9205;52.032;4.314;2023-05-20T08:43:24;16.70;1.00
18160;DHT22;9205;52.032;4.314;2023-05-20T08:45:52;16.70;1.00
18160;DHT22;9205;52.032;4.314;2023-05-20T08:48:23;16.80;1.00
18160;DHT22;9205;52.032;4.314;2023-05-20T08:50:55;16.90;99.90
18160;DHT22;9205;52.032;4.314;2023-05-20T08:53:24;17.00;99.90
18160;DHT22;9205;52.032;4.314;2023-05-20T08:55:58;17.00;99.90
18160;DHT22;9205;52.032;4.314;2023-05-20T08:58:27;17.00;99.90
18160;DHT22;9205;52.032;4.314;2023-05-20T09:00:55;17.10;99.90
18160;DHT22;9205;52.032;4.314;2023-05-20T09:03:23;17.10;99.90
18160;DHT22;9205;52.032;4.314;2023-05-20T09:05:51;17.10;1.00
18160;DHT22;9205;52.032;4.314;2023-05-20T09:08:23;17.20;1.00
18160;DHT22;9205;52.032;4.314;2023-05-20T09:10:52;17.30;1.00
18160;DHT22;9205;52.032;4.314;2023-05-20T09:13:19;17.30;1.00
18160;DHT22;9205;52.032;4.314;2023-05-20T09:15:47;17.30;1.00
18160;DHT22;9205;52.032;4.314;2023-05-20T09:18:14;17.50;1.00
18160;DHT22;9205;52.032;4.314;2023-05-20T09:20:42;17.60;1.00
18160;DHT22;9205;52.032;4.314;2023-05-20T09:23:12;17.50;1.00
18160;DHT22;9205;52.032;4.314;2023-05-20T09:25:40;17.60;99.90
18160;DHT22;9205;52.032;4.314;2023-05-20T09:28:08;17.70;99.90
18160;DHT22;9205;52.032;4.314;2023-05-20T09:30:36;17.60;99.90
18160;DHT22;9205;52.032;4.314;2023-05-20T09:33:04;17.60;99.90
18160;DHT22;9205;52.032;4.314;2023-05-20T09:35:34;17.70;11.10
18160;DHT22;9205;52.032;4.314;2023-05-20T09:38:04;17.80;1.00
18160;DHT22;9205;52.032;4.314;2023-05-20T09:40:33;17.80;1.00
18160;DHT22;9205;52.032;4.314;2023-05-20T09:43:04;17.90;1.00
18160;DHT22;9205;52.032;4.314;2023-05-20T09:45:33;17.90;1.00
18160;DHT22;9205;52.032;4.314;2023-05-20T09:48:01;17.90;1.00
18160;DHT22;9205;52.032;4.314;2023-05-20T09:50:30;18.00;1.00
18160;DHT22;9205;52.032;4.314;2023-05-20T09:53:02;18.10;1.00
18160;DHT22;9205;52.032;4.314;2023-05-20T09:55:31;18.20;1.00
18160;DHT22;9205;52.032;4.314;2023-05-20T09:58:02;18.10;1.00
18160;DHT22;9205;52.032;4.314;2023-05-20T10:00:30;18.10;1.00
18160;DHT22;9205;52.032;4.314;2023-05-20T10:02:58;18.20;1.00
18160;DHT22;9205;52.032;4.314;2023-05-20T10:05:47;18.30;1.00
18160;DHT22;9205;52.032;4.314;2023-05-20T10:08:30;18.30;1.00
18160;DHT22;9205;52.032;4.314;2023-05-20T10:11:13;18.40;1.00
18160;DHT22;9205;52.032;4.314;2023-05-20T10:14:02;18.30;1.00
18160;DHT22;9205;52.032;4.314;2023-05-20T10:16:45;18.40;1.00
18160;DHT22;9205;52.032;4.314;2023-05-20T10:19:25;18.40;1.00
18160;DHT22;9205;52.032;4.314;2023-05-20T10:21:59;18.50;1.00
18160;DHT22;9205;52.032;4.314;2023-05-20T10:24:31;18.50;1.00
18160;DHT22;9205;52.032;4.314;2023-05-20T10:27:01;18.70;99.90
18160;DHT22;9205;52.032;4.314;2023-05-20T10:29:41;18.80;1.00
18160;DHT22;9205;52.032;4.314;2023-05-20T10:32:10;18.80;1.00
18160;DHT22;9205;52.032;4.314;2023-05-20T10:34:45;19.00;99.90
18160;DHT22;9205;52.032;4.314;2023-05-20T10:37:23;19.00;99.90
18160;DHT22;9205;52.032;4.314;2023-05-20T10:40:04;19.00;99.90
18160;DHT22;9205;52.032;4.314;2023-05-20T10:42:32;19.30;99.90
18160;DHT22;9205;52.032;4.314;2023-05-20T10:45:02;19.20;99.90
18160;DHT22;9205;52.032;4.314;2023-05-20T10:47:30;19.20;38.50
18160;DHT22;9205;52.032;4.314;2023-05-20T10:49:59;19.30;63.90
18160;DHT22;9205;52.032;4.314;2023-05-20T10:52:26;19.40;78.80
18160;DHT22;9205;52.032;4.314;2023-05-20T10:54:55;19.60;35.20
18160;DHT22;9205;52.032;4.314;2023-05-20T10:57:25;19.90;2.40
18160;DHT22;9205;52.032;4.314;2023-05-20T10:59:53;20.00;1.00
18160;DHT22;9205;52.032;4.314;2023-05-20T11:02:24;20.10;1.00
18160;DHT22;9205;52.032;4.314;2023-05-20T11:04:55;20.40;1.00
18160;DHT22;9205;52.032;4.314;2023-05-20T11:07:26;20.40;1.00
18160;DHT22;9205;52.032;4.314;2023-05-20T11:09:54;20.70;1.00
18160;DHT22;9205;52.032;4.314;2023-05-20T11:12:23;20.50;1.00
18160;DHT22;9205;52.032;4.314;2023-05-20T11:14:52;20.50;1.00
18160;DHT22;9205;52.032;4.314;2023-05-20T11:17:19;20.60;1.00
18160;DHT22;9205;52.032;4.314;2023-05-20T11:19:49;20.70;1.00
18160;DHT22;9205;52.032;4.314;2023-05-20T11:22:16;20.70;1.00
18160;DHT22;9205;52.032;4.314;2023-05-20T11:24:43;20.60;1.00
18160;DHT22;9205;52.032;4.314;2023-05-20T11:27:11;20.70;1.00
18160;DHT22;9205;52.032;4.314;2023-05-20T11:29:39;20.30;1.00
18160;DHT22;9205;52.032;4.314;2023-05-20T11:32:07;19.90;1.00
18160;DHT22;9205;52.032;4.314;2023-05-20T11:34:35;19.80;1.00
18160;DHT22;9205;52.032;4.314;2023-05-20T11:37:08;20.00;1.00
18160;DHT22;9205;52.032;4.314;2023-05-20T11:39:37;20.30;1.00
18160;DHT22;9205;52.032;4.314;2023-05-20T11:42:05;20.50;1.00
18160;DHT22;9205;52.032;4.314;2023-05-20T11:44:32;20.50;1.00
18160;DHT22;9205;52.032;4.314;2023-05-20T11:47:01;20.40;1.00
18160;DHT22;9205;52.032;4.314;2023-05-20T11:49:29;20.50;1.00
18160;DHT22;9205;52.032;4.314;2023-05-20T11:52:09;20.80;1.00
18160;DHT22;9205;52.032;4.314;2023-05-20T11:54:38;21.10;1.00
18160;DHT22;9205;52.032;4.314;2023-05-20T11:57:05;21.20;1.00
18160;DHT22;9205;52.032;4.314;2023-05-20T11:59:33;21.10;99.90
18160;DHT22;9205;52.032;4.314;2023-05-20T12:02:01;21.20;99.90
18160;DHT22;9205;52.032;4.314;2023-05-20T12:04:28;21.40;99.90
18160;DHT22;9205;52.032;4.314;2023-05-20T12:06:56;21.00;99.90
18160;DHT22;9205;52.032;4.314;2023-05-20T12:09:24;20.80;99.90
18160;DHT22;9205;52.032;4.314;2023-05-20T12:11:52;20.70;99.90
18160;DHT22;9205;52.032;4.314;2023-05-20T12:14:21;20.80;99.90
18160;DHT22;9205;52.032;4.314;2023-05-20T12:16:48;20.90;99.90
18160;DHT22;9205;52.032;4.314;2023-05-20T12:19:16;21.20;99.90
18160;DHT22;9205;52.032;4.314;2023-05-20T12:21:44;21.40;99.90
18160;DHT22;9205;52.032;4.314;2023-05-20T12:24:12;21.60;99.90
18160;DHT22;9205;52.032;4.314;2023-05-20T12:26:41;21.50;99.90
18160;DHT22;9205;52.032;4.314;2023-05-20T12:29:08;21.30;99.90
18160;DHT22;9205;52.032;4.314;2023-05-20T12:31:35;21.30;99.90
18160;DHT22;9205;52.032;4.314;2023-05-20T12:34:02;21.30;99.90
18160;DHT22;9205;52.032;4.314;2023-05-20T12:36:30;21.40;99.90
18160;DHT22;9205;52.032;4.314;2023-05-20T12:38:58;21.60;99.90
18160;DHT22;9205;52.032;4.314;2023-05-20T12:41:25;21.90;99.90
18160;DHT22;9205;52.032;4.314;2023-05-20T12:43:54;21.90;99.90
18160;DHT22;9205;52.032;4.314;2023-05-20T12:46:21;21.40;99.90
18160;DHT22;9205;52.032;4.314;2023-05-20T12:48:49;21.00;99.90
18160;DHT22;9205;52.032;4.314;2023-05-20T12:51:16;21.40;99.90
18160;DHT22;9205;52.032;4.314;2023-05-20T12:53:44;21.60;99.90
18160;DHT22;9205;52.032;4.314;2023-05-20T12:56:12;21.80;99.90
18160;DHT22;9205;52.032;4.314;2023-05-20T12:58:39;21.50;99.90
18160;DHT22;9205;52.032;4.314;2023-05-20T13:01:08;21.20;99.90
18160;DHT22;9205;52.032;4.314;2023-05-20T13:03:35;21.40;99.90
18160;DHT22;9205;52.032;4.314;2023-05-20T13:06:03;21.00;47.40
18160;DHT22;9205;52.032;4.314;2023-05-20T13:08:31;20.80;56.30
18160;DHT22;9205;52.032;4.314;2023-05-20T13:10:58;20.90;43.80
18160;DHT22;9205;52.032;4.314;2023-05-20T13:13:25;21.00;52.50
18160;DHT22;9205;52.032;4.314;2023-05-20T13:15:53;21.20;99.90
18160;DHT22;9205;52.032;4.314;2023-05-20T13:18:23;21.00;58.20
18160;DHT22;9205;52.032;4.314;2023-05-20T13:20:50;21.50;99.90
18160;DHT22;9205;52.032;4.314;2023-05-20T13:23:17;21.80;85.80
18160;DHT22;9205;52.032;4.314;2023-05-20T13:25:44;21.80;95.50
18160;DHT22;9205;52.032;4.314;2023-05-20T13:28:12;22.10;93.70
18160;DHT22;9205;52.032;4.314;2023-05-20T13:30:43;22.00;70.80
18160;DHT22;9205;52.032;4.314;2023-05-20T13:33:12;22.00;58.40
18160;DHT22;9205;52.032;4.314;2023-05-20T13:35:41;21.90;1.00
18160;DHT22;9205;52.032;4.314;2023-05-20T13:38:08;22.20;62.50
18160;DHT22;9205;52.032;4.314;2023-05-20T13:40:36;22.20;39.20
18160;DHT22;9205;52.032;4.314;2023-05-20T13:43:03;21.90;18.00
18160;DHT22;9205;52.032;4.314;2023-05-20T13:45:31;21.30;1.00
18160;DHT22;9205;52.032;4.314;2023-05-20T13:47:58;21.20;1.00
18160;DHT22;9205;52.032;4.314;2023-05-20T13:50:25;21.00;1.00
18160;DHT22;9205;52.032;4.314;2023-05-20T13:52:54;20.90;1.00
18160;DHT22;9205;52.032;4.314;2023-05-20T13:55:21;20.80;1.00
18160;DHT22;9205;52.032;4.314;2023-05-20T13:57:49;20.80;1.00
18160;DHT22;9205;52.032;4.314;2023-05-20T14:00:17;20.90;20.20
18160;DHT22;9205;52.032;4.314;2023-05-20T14:02:45;20.90;7.70
18160;DHT22;9205;52.032;4.314;2023-05-20T14:05:12;20.80;1.00
18160;DHT22;9205;52.032;4.314;2023-05-20T14:07:40;20.70;1.00
18160;DHT22;9205;52.032;4.314;2023-05-20T14:10:09;21.00;69.50
18160;DHT22;9205;52.032;4.314;2023-05-20T14:12:36;21.30;66.10
18160;DHT22;9205;52.032;4.314;2023-05-20T14:15:04;21.70;99.90
18160;DHT22;9205;52.032;4.314;2023-05-20T14:17:32;21.80;89.30
18160;DHT22;9205;52.032;4.314;2023-05-20T14:20:00;21.70;27.30
18160;DHT22;9205;52.032;4.314;2023-05-20T14:22:27;21.70;21.40
18160;DHT22;9205;52.032;4.314;2023-05-20T14:24:55;22.10;56.60
18160;DHT22;9205;52.032;4.314;2023-05-20T14:27:24;22.10;39.50
18160;DHT22;9205;52.032;4.314;2023-05-20T14:29:51;21.90;30.70
18160;DHT22;9205;52.032;4.314;2023-05-20T14:32:18;21.70;1.00
18160;DHT22;9205;52.032;4.314;2023-05-20T14:34:46;21.70;1.00
18160;DHT22;9205;52.032;4.314;2023-05-20T14:37:13;21.80;1.70
18160;DHT22;9205;52.032;4.314;2023-05-20T14:39:41;21.70;1.00
18160;DHT22;9205;52.032;4.314;2023-05-20T14:42:08;21.70;8.00
18160;DHT22;9205;52.032;4.314;2023-05-20T14:44:37;21.80;13.90
18160;DHT22;9205;52.032;4.314;2023-05-20T14:47:04;21.70;1.00
18160;DHT22;9205;52.032;4.314;2023-05-20T14:49:32;21.90;16.60
18160;DHT22;9205;52.032;4.314;2023-05-20T14:52:01;21.80;3.30
18160;DHT22;9205;52.032;4.314;2023-05-20T14:54:28;21.90;1.00
18160;DHT22;9205;52.032;4.314;2023-05-20T14:56:55;22.00;5.50
18160;DHT22;9205;52.032;4.314;2023-05-20T14:59:23;22.00;1.00
18160;DHT22;9205;52.032;4.314;2023-05-20T15:01:51;22.00;1.00
18160;DHT22;9205;52.032;4.314;2023-05-20T15:04:19;22.10;1.00
18160;DHT22;9205;52.032;4.314;2023-05-20T15:06:46;22.30;1.00
18160;DHT22;9205;52.032;4.314;2023-05-20T15:09:13;22.10;1.00
18160;DHT22;9205;52.032;4.314;2023-05-20T15:11:41;22.40;1.00
18160;DHT22;9205;52.032;4.314;2023-05-20T15:14:08;22.40;1.00
18160;DHT22;9205;52.032;4.314;2023-05-20T15:16:35;22.70;1.00
18160;DHT22;9205;52.032;4.314;2023-05-20T15:19:07;22.40;1.00
18160;DHT22;9205;52.032;4.314;2023-05-20T15:21:34;22.10;1.00
18160;DHT22;9205;52.032;4.314;2023-05-20T15:24:02;21.60;1.00
18160;DHT22;9205;52.032;4.314;2023-05-20T15:26:30;21.50;1.00
18160;DHT22;9205;52.032;4.314;2023-05-20T15:29:01;21.30;1.00
18160;DHT22;9205;52.032;4.314;2023-05-20T15:31:28;21.00;1.00
18160;DHT22;9205;52.032;4.314;2023-05-20T15:33:56;21.20;1.00
18160;DHT22;9205;52.032;4.314;2023-05-20T15:36:32;21.50;1.00
18160;DHT22;9205;52.032;4.314;2023-05-20T15:39:00;21.70;1.00
18160;DHT22;9205;52.032;4.314;2023-05-20T15:41:30;21.50;1.00
18160;DHT22;9205;52.032;4.314;2023-05-20T15:43:57;21.60;1.00
18160;DHT22;9205;52.032;4.314;2023-05-20T15:46:25;21.00;1.00
18160;DHT22;9205;52.032;4.314;2023-05-20T15:48:52;20.80;1.00
18160;DHT22;9205;52.032;4.314;2023-05-20T15:51:21;20.70;1.00
18160;DHT22;9205;52.032;4.314;2023-05-20T15:53:50;20.60;1.00
18160;DHT22;9205;52.032;4.314;2023-05-20T15:56:18;20.60;1.00
18160;DHT22;9205;52.032;4.314;2023-05-20T15:58:46;20.60;1.00
18160;DHT22;9205;52.032;4.314;2023-05-20T16:01:13;20.50;1.00
18160;DHT22;9205;52.032;4.314;2023-05-20T16:03:42;20.50;1.00